sensor_id;sensor_type;location;lat;lon;timestamp;P1;durP1;ratioP1;P2;durP2;ratioP2
19965;SDS011;10144;50.874;4.762;2022-07-06T15:33:21;5.03;;;2.42;;
19965;SDS011;10144;50.874;4.762;2022-07-06T15:35:48;5.40;;;2.17;;
19965;SDS011;10144;50.874;4.762;2022-07-06T15:38:14;7.35;;;2.25;;
19965;SDS011;10144;50.874;4.762;2022-07-06T15:40:41;12.40;;;2.70;;
19965;SDS011;10144;50.874;4.762;2022-07-06T15:43:28;7.18;;;2.30;;
19965;SDS011;10144;50.874;4.762;2022-07-06T15:45:58;6.75;;;2.45;;
19965;SDS011;10144;50.874;4.762;2022-07-06T15:48:25;5.22;;;2.38;;
19965;SDS011;10144;50.874;4.762;2022-07-06T15:50:52;6.68;;;2.30;;
19965;SDS011;10144;50.874;4.762;2022-07-06T15:53:18;6.60;;;2.63;;
19965;SDS011;10144;50.874;4.762;2022-07-06T15:55:44;2.22;;;1.88;;
19965;SDS011;10144;50.874;4.762;2022-07-06T15:58:10;7.75;;;2.20;;
19965;SDS011;10144;50.874;4.762;2022-07-06T16:00:36;8.25;;;2.55;;
19965;SDS011;10144;50.874;4.762;2022-07-06T16:03:02;7.45;;;2.20;;
19965;SDS011;10144;50.874;4.762;2022-07-06T16:05:29;5.10;;;2.60;;
19965;SDS011;10144;50.874;4.762;2022-07-06T16:07:54;6.55;;;2.42;;
19965;SDS011;10144;50.874;4.762;2022-07-06T16:10:20;4.75;;;2.42;;
19965;SDS011;10144;50.874;4.762;2022-07-06T16:12:46;4.65;;;2.03;;
19965;SDS011;10144;50.874;4.762;2022-07-06T16:15:13;6.93;;;2.17;;
19965;SDS011;10144;50.874;4.762;2022-07-06T16:17:40;10.68;;;2.75;;
19965;SDS011;10144;50.874;4.762;2022-07-06T16:20:06;4.97;;;1.90;;
19965;SDS011;10144;50.874;4.762;2022-07-06T16:22:33;7.30;;;2.30;;
19965;SDS011;10144;50.874;4.762;2022-07-06T16:24:59;6.15;;;2.10;;
19965;SDS011;10144;50.874;4.762;2022-07-06T16:27:26;4.00;;;2.20;;
19965;SDS011;10144;50.874;4.762;2022-07-06T16:29:52;7.28;;;1.90;;
19965;SDS011;10144;50.874;4.762;2022-07-06T16:32:19;6.38;;;2.13;;
19965;SDS011;10144;50.874;4.762;2022-07-06T16:34:44;5.45;;;2.35;;
19965;SDS011;10144;50.874;4.762;2022-07-06T16:37:10;9.63;;;2.03;;
19965;SDS011;10144;50.874;4.762;2022-07-06T16:39:36;7.25;;;2.22;;
19965;SDS011;10144;50.874;4.762;2022-07-06T16:42:02;8.70;;;2.35;;
19965;SDS011;10144;50.874;4.762;2022-07-06T16:44:28;5.65;;;2.60;;
19965;SDS011;10144;50.874;4.762;2022-07-06T16:46:54;7.80;;;2.08;;
19965;SDS011;10144;50.874;4.762;2022-07-06T16:49:19;8.23;;;2.63;;
19965;SDS011;10144;50.874;4.762;2022-07-06T16:51:45;5.20;;;2.20;;
19965;SDS011;10144;50.874;4.762;2022-07-06T16:54:11;5.40;;;2.10;;
19965;SDS011;10144;50.874;4.762;2022-07-06T16:59:05;7.25;;;2.58;;
19965;SDS011;10144;50.874;4.762;2022-07-06T17:01:31;5.22;;;2.30;;
19965;SDS011;10144;50.874;4.762;2022-07-06T17:03:56;14.18;;;2.70;;
19965;SDS011;10144;50.874;4.762;2022-07-06T17:06:22;5.95;;;2.60;;
19965;SDS011;10144;50.874;4.762;2022-07-06T17:08:49;8.57;;;2.72;;
19965;SDS011;10144;50.874;4.762;2022-07-06T17:11:16;5.85;;;2.40;;
19965;SDS011;10144;50.874;4.762;2022-07-06T17:13:43;4.90;;;2.47;;
19965;SDS011;10144;50.874;4.762;2022-07-06T17:16:08;7.63;;;2.60;;
19965;SDS011;10144;50.874;4.762;2022-07-06T17:18:34;10.10;;;2.92;;
19965;SDS011;10144;50.874;4.762;2022-07-06T17:21:00;5.38;;;2.45;;
19965;SDS011;10144;50.874;4.762;2022-07-06T17:23:26;5.15;;;2.95;;
19965;SDS011;10144;50.874;4.762;2022-07-06T17:25:51;6.05;;;2.60;;
19965;SDS011;10144;50.874;4.762;2022-07-06T17:28:21;7.75;;;3.20;;
19965;SDS011;10144;50.874;4.762;2022-07-06T17:30:47;9.13;;;3.10;;
19965;SDS011;10144;50.874;4.762;2022-07-06T17:33:13;11.27;;;3.55;;
19965;SDS011;10144;50.874;4.762;2022-07-06T17:35:39;7.20;;;2.90;;
19965;SDS011;10144;50.874;4.762;2022-07-06T17:38:05;6.45;;;3.42;;
19965;SDS011;10144;50.874;4.762;2022-07-06T17:40:31;9.75;;;3.22;;
19965;SDS011;10144;50.874;4.762;2022-07-06T17:42:56;8.88;;;3.20;;
19965;SDS011;10144;50.874;4.762;2022-07-06T17:45:22;7.57;;;2.90;;
19965;SDS011;10144;50.874;4.762;2022-07-06T17:47:48;10.93;;;2.90;;
19965;SDS011;10144;50.874;4.762;2022-07-06T17:50:13;4.93;;;2.70;;
19965;SDS011;10144;50.874;4.762;2022-07-06T17:52:39;4.35;;;2.63;;
19965;SDS011;10144;50.874;4.762;2022-07-06T17:55:05;8.23;;;2.97;;
19965;SDS011;10144;50.874;4.762;2022-07-06T17:57:31;7.28;;;3.17;;
19965;SDS011;10144;50.874;4.762;2022-07-06T17:59:56;6.97;;;3.20;;
19965;SDS011;10144;50.874;4.762;2022-07-06T18:02:22;7.97;;;3.35;;
19965;SDS011;10144;50.874;4.762;2022-07-06T18:04:47;11.40;;;3.58;;
19965;SDS011;10144;50.874;4.762;2022-07-06T18:07:13;9.73;;;4.43;;
19965;SDS011;10144;50.874;4.762;2022-07-06T18:09:39;11.88;;;4.88;;
19965;SDS011;10144;50.874;4.762;2022-07-06T18:12:05;7.32;;;4.28;;
19965;SDS011;10144;50.874;4.762;2022-07-06T18:14:32;11.20;;;5.25;;
19965;SDS011;10144;50.874;4.762;2022-07-06T18:16:58;9.65;;;5.07;;
19965;SDS011;10144;50.874;4.762;2022-07-06T18:21:52;12.25;;;5.35;;
19965;SDS011;10144;50.874;4.762;2022-07-06T18:24:18;13.57;;;5.55;;
19965;SDS011;10144;50.874;4.762;2022-07-06T18:26:43;13.50;;;5.63;;
19965;SDS011;10144;50.874;4.762;2022-07-06T18:29:16;11.95;;;4.90;;
19965;SDS011;10144;50.874;4.762;2022-07-06T18:31:41;8.82;;;4.57;;
19965;SDS011;10144;50.874;4.762;2022-07-06T18:34:10;12.10;;;4.80;;
19965;SDS011;10144;50.874;4.762;2022-07-06T18:39:08;10.40;;;4.85;;
19965;SDS011;10144;50.874;4.762;2022-07-06T18:46:34;7.40;;;3.90;;
19965;SDS011;10144;50.874;4.762;2022-07-06T18:51:30;8.07;;;4.00;;
19965;SDS011;10144;50.874;4.762;2022-07-06T18:53:56;11.32;;;4.18;;
19965;SDS011;10144;50.874;4.762;2022-07-06T18:56:22;8.27;;;4.15;;
19965;SDS011;10144;50.874;4.762;2022-07-06T18:58:48;12.98;;;3.95;;
19965;SDS011;10144;50.874;4.762;2022-07-06T19:01:15;8.07;;;3.92;;
19965;SDS011;10144;50.874;4.762;2022-07-06T19:03:43;11.98;;;4.10;;
19965;SDS011;10144;50.874;4.762;2022-07-06T19:06:12;10.20;;;4.10;;
19965;SDS011;10144;50.874;4.762;2022-07-06T19:08:38;10.93;;;4.10;;
19965;SDS011;10144;50.874;4.762;2022-07-06T19:11:04;8.05;;;3.70;;
19965;SDS011;10144;50.874;4.762;2022-07-06T19:13:31;11.70;;;3.83;;
19965;SDS011;10144;50.874;4.762;2022-07-06T19:15:58;11.55;;;3.88;;
19965;SDS011;10144;50.874;4.762;2022-07-06T19:18:24;10.10;;;3.47;;
19965;SDS011;10144;50.874;4.762;2022-07-06T19:20:49;9.27;;;3.70;;
19965;SDS011;10144;50.874;4.762;2022-07-06T19:23:17;10.10;;;3.88;;
19965;SDS011;10144;50.874;4.762;2022-07-06T19:25:44;8.88;;;3.60;;
19965;SDS011;10144;50.874;4.762;2022-07-06T19:28:11;7.68;;;3.72;;
19965;SDS011;10144;50.874;4.762;2022-07-06T19:30:40;6.82;;;3.25;;
19965;SDS011;10144;50.874;4.762;2022-07-06T19:33:06;8.73;;;3.30;;
19965;SDS011;10144;50.874;4.762;2022-07-06T19:35:33;8.57;;;3.30;;
19965;SDS011;10144;50.874;4.762;2022-07-06T19:38:02;8.70;;;4.18;;
19965;SDS011;10144;50.874;4.762;2022-07-06T19:40:27;13.70;;;4.60;;
19965;SDS011;10144;50.874;4.762;2022-07-06T19:42:57;10.40;;;4.30;;
19965;SDS011;10144;50.874;4.762;2022-07-06T19:45:25;10.05;;;3.65;;
19965;SDS011;10144;50.874;4.762;2022-07-06T19:51:04;6.15;;;2.50;;
19965;SDS011;10144;50.874;4.762;2022-07-06T19:53:33;5.55;;;2.33;;
19965;SDS011;10144;50.874;4.762;2022-07-06T19:55:59;5.40;;;2.13;;
19965;SDS011;10144;50.874;4.762;2022-07-06T19:58:26;8.88;;;1.90;;
19965;SDS011;10144;50.874;4.762;2022-07-06T20:00:52;4.20;;;1.60;;
19965;SDS011;10144;50.874;4.762;2022-07-06T20:03:19;3.38;;;1.77;;
19965;SDS011;10144;50.874;4.762;2022-07-06T20:05:46;4.85;;;1.92;;
19965;SDS011;10144;50.874;4.762;2022-07-06T20:08:12;6.65;;;2.10;;
19965;SDS011;10144;50.874;4.762;2022-07-06T20:13:27;3.45;;;1.38;;
19965;SDS011;10144;50.874;4.762;2022-07-06T20:15:53;3.70;;;1.40;;
19965;SDS011;10144;50.874;4.762;2022-07-06T20:24:16;3.58;;;1.40;;
19965;SDS011;10144;50.874;4.762;2022-07-06T20:30:05;5.65;;;1.63;;
19965;SDS011;10144;50.874;4.762;2022-07-06T20:32:31;5.15;;;1.20;;
19965;SDS011;10144;50.874;4.762;2022-07-06T20:34:58;2.95;;;1.50;;
19965;SDS011;10144;50.874;4.762;2022-07-06T20:37:24;5.15;;;1.30;;
19965;SDS011;10144;50.874;4.762;2022-07-06T20:39:50;4.00;;;1.30;;
19965;SDS011;10144;50.874;4.762;2022-07-06T20:42:16;4.55;;;1.40;;
19965;SDS011;10144;50.874;4.762;2022-07-06T20:44:44;4.60;;;1.20;;
19965;SDS011;10144;50.874;4.762;2022-07-06T20:47:11;3.42;;;1.00;;
19965;SDS011;10144;50.874;4.762;2022-07-06T20:52:07;2.53;;;1.15;;
19965;SDS011;10144;50.874;4.762;2022-07-06T20:54:34;2.50;;;1.33;;
19965;SDS011;10144;50.874;4.762;2022-07-06T20:57:00;3.40;;;1.35;;
19965;SDS011;10144;50.874;4.762;2022-07-06T20:59:39;4.18;;;1.20;;
19965;SDS011;10144;50.874;4.762;2022-07-06T21:02:16;3.45;;;1.45;;
19965;SDS011;10144;50.874;4.762;2022-07-06T21:04:51;2.75;;;1.30;;
19965;SDS011;10144;50.874;4.762;2022-07-06T21:10:03;1.85;;;1.20;;
19965;SDS011;10144;50.874;4.762;2022-07-06T21:12:32;5.57;;;1.23;;
19965;SDS011;10144;50.874;4.762;2022-07-06T21:21:25;4.07;;;1.48;;
19965;SDS011;10144;50.874;4.762;2022-07-06T21:23:54;5.13;;;1.50;;
19965;SDS011;10144;50.874;4.762;2022-07-06T21:26:26;5.38;;;1.48;;
19965;SDS011;10144;50.874;4.762;2022-07-06T21:28:54;4.40;;;1.17;;
19965;SDS011;10144;50.874;4.762;2022-07-06T21:31:19;3.42;;;1.50;;
19965;SDS011;10144;50.874;4.762;2022-07-06T21:33:47;4.15;;;1.52;;
19965;SDS011;10144;50.874;4.762;2022-07-06T21:36:14;3.30;;;1.60;;
19965;SDS011;10144;50.874;4.762;2022-07-06T21:41:51;4.63;;;1.80;;
19965;SDS011;10144;50.874;4.762;2022-07-06T21:46:46;3.53;;;1.58;;
19965;SDS011;10144;50.874;4.762;2022-07-06T21:49:12;6.72;;;1.60;;
19965;SDS011;10144;50.874;4.762;2022-07-06T21:54:09;2.10;;;1.27;;
19965;SDS011;10144;50.874;4.762;2022-07-06T21:56:41;2.22;;;1.17;;
19965;SDS011;10144;50.874;4.762;2022-07-06T21:59:07;2.35;;;1.33;;
19965;SDS011;10144;50.874;4.762;2022-07-06T22:01:39;2.92;;;1.40;;
19965;SDS011;10144;50.874;4.762;2022-07-06T22:04:05;4.22;;;1.30;;
19965;SDS011;10144;50.874;4.762;2022-07-06T22:09:32;5.30;;;1.27;;
19965;SDS011;10144;50.874;4.762;2022-07-06T22:11:59;5.28;;;1.40;;
19965;SDS011;10144;50.874;4.762;2022-07-06T22:14:26;2.28;;;1.23;;
19965;SDS011;10144;50.874;4.762;2022-07-06T22:16:54;3.00;;;1.08;;
19965;SDS011;10144;50.874;4.762;2022-07-06T22:19:23;2.83;;;1.23;;
19965;SDS011;10144;50.874;4.762;2022-07-06T22:21:50;3.10;;;1.20;;
19965;SDS011;10144;50.874;4.762;2022-07-06T22:24:17;2.63;;;1.27;;
19965;SDS011;10144;50.874;4.762;2022-07-06T22:26:44;3.67;;;1.30;;
19965;SDS011;10144;50.874;4.762;2022-07-06T22:32:32;1.85;;;1.30;;
19965;SDS011;10144;50.874;4.762;2022-07-06T22:38:20;5.32;;;1.58;;
19965;SDS011;10144;50.874;4.762;2022-07-06T22:44:09;2.35;;;1.50;;
19965;SDS011;10144;50.874;4.762;2022-07-06T22:49:59;3.17;;;1.40;;
19965;SDS011;10144;50.874;4.762;2022-07-06T22:55:48;3.72;;;1.63;;
19965;SDS011;10144;50.874;4.762;2022-07-06T23:01:36;2.75;;;1.70;;
19965;SDS011;10144;50.874;4.762;2022-07-06T23:07:24;3.20;;;1.63;;
19965;SDS011;10144;50.874;4.762;2022-07-06T23:13:13;4.43;;;1.88;;
19965;SDS011;10144;50.874;4.762;2022-07-06T23:19:01;2.70;;;1.60;;
19965;SDS011;10144;50.874;4.762;2022-07-06T23:24:49;4.53;;;1.80;;
19965;SDS011;10144;50.874;4.762;2022-07-06T23:30:38;2.42;;;1.85;;
19965;SDS011;10144;50.874;4.762;2022-07-06T23:36:26;4.53;;;1.90;;
19965;SDS011;10144;50.874;4.762;2022-07-06T23:42:14;2.17;;;1.70;;
19965;SDS011;10144;50.874;4.762;2022-07-06T23:48:02;3.90;;;1.77;;
19965;SDS011;10144;50.874;4.762;2022-07-06T23:53:51;4.68;;;1.90;;
19965;SDS011;10144;50.874;4.762;2022-07-06T23:59:40;4.97;;;1.92;;
